Time,TemperatureF,DewpointF,PressureIn,WindDirection,WindDirectionDegrees,WindSpeedMPH,WindSpeedGustMPH,Humidity,HourlyPrecipIn,Conditions,Clouds,dailyrainin,SolarRadiationWatts/m^2,SoftwareType,DateUTC
2013-02-05 00:00:00,29.7,27.9,29.90,South,187,0.0,0.0,93,0.00,,,0.00,0,Wunderground v.1.15,2013-02-05 05:00:00,
2013-02-05 00:01:00,29.7,27.9,29.91,South,187,0.0,0.0,93,0.00,,,0.00,0,Wunderground v.1.15,2013-02-05 05:01:00,
2013-02-05 00:06:00,29.7,27.9,29.90,South,187,0.0,0.0,93,0.00,,,0.00,0,Wunderground v.1.15,2013-02-05 05:06:00,
2013-02-05 00:11:00,29.7,27.9,29.90,South,187,0.0,0.0,93,0.00,,,0.00,0,Wunderground v.1.15,2013-02-05 05:11:00,
2013-02-05 00:17:00,29.7,27.9,29.90,South,187,0.0,0.0,93,0.00,,,0.00,0,Wunderground v.1.15,2013-02-05 05:17:00,
2013-02-05 00:22:00,29.7,27.9,29.90,South,187,0.0,0.0,93,0.00,,,0.00,0,Wunderground v.1.15,2013-02-05 05:22:00,
2013-02-05 00:28:00,29.7,27.9,29.90,South,187,0.0,0.0,93,0.00,,,0.00,0,Wunderground v.1.15,2013-02-05 05:28:00,
2013-02-05 00:33:00,29.7,27.9,29.90,South,187,0.0,0.0,93,0.00,,,0.00,0,Wunderground v.1.15,2013-02-05 05:33:00,
2013-02-05 00:38:00,29.7,27.9,29.90,South,187,0.0,0.0,93,0.00,,,0.00,0,Wunderground v.1.15,2013-02-05 05:38:00,
2013-02-05 00:44:00,29.7,27.9,29.90,South,187,0.0,0.0,93,0.00,,,0.00,0,Wunderground v.1.15,2013-02-05 05:44:00,
2013-02-05 00:49:00,29.8,28.0,29.90,South,187,0.0,0.0,93,0.00,,,0.00,0,Wunderground v.1.15,2013-02-05 05:49:00,
2013-02-05 00:54:00,29.8,28.0,29.90,South,187,0.0,0.0,93,0.00,,,0.00,0,Wunderground v.1.15,2013-02-05 05:54:00,
2013-02-05 00:59:00,29.8,28.0,29.90,South,187,0.0,0.0,93,0.00,,,0.00,0,Wunderground v.1.15,2013-02-05 05:59:00,
2013-02-05 01:04:00,29.8,28.0,29.90,South,187,0.0,0.0,93,0.00,,,0.00,0,Wunderground v.1.15,2013-02-05 06:04:00,
2013-02-05 01:10:00,29.8,28.0,29.91,South,187,0.0,0.0,93,0.00,,,0.00,0,Wunderground v.1.15,2013-02-05 06:10:00,
2013-02-05 01:15:00,29.8,28.0,29.91,South,187,0.0,0.0,93,0.00,,,0.00,0,Wunderground v.1.15,2013-02-05 06:15:00,
2013-02-05 01:20:00,29.9,28.1,29.91,SW,234,0.0,0.0,93,0.00,,,0.00,0,Wunderground v.1.15,2013-02-05 06:20:00,
2013-02-05 01:25:00,29.9,28.1,29.91,SW,234,0.0,0.0,93,0.00,,,0.00,0,Wunderground v.1.15,2013-02-05 06:25:00,
2013-02-05 01:30:00,29.9,28.1,29.91,SW,234,0.0,0.0,93,0.00,,,0.00,0,Wunderground v.1.15,2013-02-05 06:30:00,
2013-02-05 01:36:00,30.0,28.2,29.91,SW,234,0.0,0.0,93,0.00,,,0.00,0,Wunderground v.1.15,2013-02-05 06:36:00,
2013-02-05 01:41:00,30.0,28.2,29.91,SW,234,0.0,0.0,93,0.00,,,0.00,0,Wunderground v.1.15,2013-02-05 06:41:00,
2013-02-05 01:46:00,30.0,28.2,29.91,SW,234,0.0,0.0,93,0.00,,,0.00,0,Wunderground v.1.15,2013-02-05 06:46:00,
2013-02-05 01:51:00,30.0,28.2,29.91,SW,234,0.0,0.0,93,0.00,,,0.00,0,Wunderground v.1.15,2013-02-05 06:51:00,
2013-02-05 01:56:00,30.1,28.3,29.92,SW,234,0.0,0.0,93,0.00,,,0.00,0,Wunderground v.1.15,2013-02-05 06:56:00,
2013-02-05 02:01:00,30.1,28.6,29.92,SW,234,0.0,0.0,94,0.00,,,0.00,0,Wunderground v.1.15,2013-02-05 07:01:00,
2013-02-05 02:06:00,30.1,28.3,29.91,SW,234,0.0,0.0,93,0.00,,,0.00,0,Wunderground v.1.15,2013-02-05 07:06:00,
2013-02-05 02:11:00,30.1,28.6,29.91,SW,234,0.0,0.0,94,0.00,,,0.00,0,Wunderground v.1.15,2013-02-05 07:11:00,
2013-02-05 02:16:00,30.1,28.6,29.92,SW,234,0.0,0.0,94,0.00,,,0.00,0,Wunderground v.1.15,2013-02-05 07:16:00,
2013-02-05 02:21:00,30.1,28.6,29.92,SW,234,0.0,0.0,94,0.00,,,0.00,0,Wunderground v.1.15,2013-02-05 07:21:00,
2013-02-05 02:26:00,30.1,28.6,29.92,WSW,246,0.0,0.0,94,0.00,,,0.00,0,Wunderground v.1.15,2013-02-05 07:26:00,
2013-02-05 02:31:00,30.2,28.7,29.91,WSW,246,0.0,0.0,94,0.00,,,0.00,0,Wunderground v.1.15,2013-02-05 07:31:00,
2013-02-05 02:36:00,30.3,28.8,29.92,West,269,0.0,0.0,94,0.00,,,0.00,0,Wunderground v.1.15,2013-02-05 07:36:00,
2013-02-05 02:41:00,30.4,28.9,29.92,West,265,0.0,0.0,94,0.00,,,0.00,0,Wunderground v.1.15,2013-02-05 07:41:00,
2013-02-05 02:46:00,30.5,29.0,29.92,West,270,0.0,0.0,94,0.00,,,0.00,0,Wunderground v.1.15,2013-02-05 07:46:00,
2013-02-05 02:51:00,30.7,29.2,29.92,WNW,287,0.0,0.0,94,0.00,,,0.00,0,Wunderground v.1.15,2013-02-05 07:51:00,
2013-02-05 02:56:00,30.8,29.3,29.92,West,271,0.0,0.0,94,0.00,,,0.00,0,Wunderground v.1.15,2013-02-05 07:56:00,
2013-02-05 03:01:00,30.9,29.4,29.92,West,272,0.0,0.0,94,0.00,,,0.00,0,Wunderground v.1.15,2013-02-05 08:01:00,
2013-02-05 03:06:00,31.0,29.5,29.92,WNW,294,0.0,0.0,94,0.00,,,0.00,0,Wunderground v.1.15,2013-02-05 08:06:00,
2013-02-05 03:11:00,30.9,29.4,29.92,NW,319,0.0,0.0,94,0.00,,,0.00,0,Wunderground v.1.15,2013-02-05 08:11:00,
2013-02-05 03:16:00,30.8,29.3,29.92,WNW,301,0.0,0.0,94,0.00,,,0.00,0,Wunderground v.1.15,2013-02-05 08:16:00,
2013-02-05 03:21:00,30.6,28.8,29.91,NW,304,0.0,0.0,93,0.00,,,0.00,0,Wunderground v.1.15,2013-02-05 08:21:00,
2013-02-05 03:26:00,30.3,28.5,29.91,NW,311,0.0,0.0,93,0.00,,,0.00,0,Wunderground v.1.15,2013-02-05 08:26:00,
2013-02-05 03:31:00,29.9,28.1,29.91,WNW,298,0.0,0.0,93,0.00,,,0.00,0,Wunderground v.1.15,2013-02-05 08:31:00,
2013-02-05 03:36:00,29.6,27.8,29.90,WNW,294,0.0,0.0,93,0.00,,,0.00,0,Wunderground v.1.15,2013-02-05 08:36:00,
2013-02-05 03:41:00,29.3,27.5,29.91,NW,323,0.0,0.0,93,0.00,,,0.00,0,Wunderground v.1.15,2013-02-05 08:41:00,
2013-02-05 03:46:00,29.2,27.4,29.91,WNW,295,0.0,0.0,93,0.00,,,0.00,0,Wunderground v.1.15,2013-02-05 08:46:00,
2013-02-05 03:51:00,29.0,27.2,29.91,WNW,302,0.0,0.0,93,0.00,,,0.00,0,Wunderground v.1.15,2013-02-05 08:51:00,
2013-02-05 03:56:00,28.9,27.4,29.91,WNW,303,0.0,0.0,94,0.00,,,0.00,0,Wunderground v.1.15,2013-02-05 08:56:00,
2013-02-05 04:01:00,28.9,27.4,29.91,WNW,291,0.0,0.0,94,0.00,,,0.00,0,Wunderground v.1.15,2013-02-05 09:01:00,
2013-02-05 04:06:00,28.8,27.3,29.91,NW,317,0.0,0.0,94,0.00,,,0.00,0,Wunderground v.1.15,2013-02-05 09:06:00,
2013-02-05 04:11:00,28.7,26.9,29.91,NW,319,0.0,0.0,93,0.00,,,0.00,0,Wunderground v.1.15,2013-02-05 09:11:00,
2013-02-05 04:16:00,28.6,26.8,29.91,WNW,300,0.0,0.0,93,0.00,,,0.00,0,Wunderground v.1.15,2013-02-05 09:16:00,
2013-02-05 04:21:00,28.5,26.7,29.91,West,279,0.0,0.0,93,0.00,,,0.00,0,Wunderground v.1.15,2013-02-05 09:21:00,
2013-02-05 04:26:00,28.4,26.6,29.91,NW,312,0.0,0.0,93,0.00,,,0.00,0,Wunderground v.1.15,2013-02-05 09:26:00,
2013-02-05 04:31:00,28.3,26.5,29.91,West,281,0.0,0.0,93,0.00,,,0.00,0,Wunderground v.1.15,2013-02-05 09:31:00,
2013-02-05 04:36:00,28.2,26.4,29.90,NNW,331,0.0,0.0,93,0.00,,,0.00,0,Wunderground v.1.15,2013-02-05 09:36:00,
2013-02-05 04:41:00,28.1,26.3,29.90,NW,322,0.0,0.0,93,0.00,,,0.00,0,Wunderground v.1.15,2013-02-05 09:41:00,
2013-02-05 04:46:00,28.1,26.3,29.90,NW,321,0.0,0.0,93,0.00,,,0.00,0,Wunderground v.1.15,2013-02-05 09:46:00,
2013-02-05 04:51:00,28.1,26.3,29.91,NW,321,0.0,0.0,93,0.00,,,0.00,0,Wunderground v.1.15,2013-02-05 09:51:00,
2013-02-05 04:56:00,28.1,26.3,29.91,WNW,284,0.0,0.0,93,0.00,,,0.00,0,Wunderground v.1.15,2013-02-05 09:56:00,
2013-02-05 05:01:00,28.1,26.3,29.92,West,272,0.0,0.0,93,0.00,,,0.00,0,Wunderground v.1.15,2013-02-05 10:01:00,
2013-02-05 05:06:00,28.0,26.2,29.92,West,273,0.0,0.0,93,0.00,,,0.00,0,Wunderground v.1.15,2013-02-05 10:06:00,
2013-02-05 05:11:00,28.0,26.2,29.92,West,273,0.0,0.0,93,0.00,,,0.00,0,Wunderground v.1.15,2013-02-05 10:11:00,
2013-02-05 05:16:00,28.0,26.2,29.92,West,273,0.0,0.0,93,0.00,,,0.00,0,Wunderground v.1.15,2013-02-05 10:16:00,
2013-02-05 05:21:00,27.9,26.1,29.92,West,281,0.0,0.0,93,0.00,,,0.00,0,Wunderground v.1.15,2013-02-05 10:21:00,
2013-02-05 05:26:00,27.9,26.1,29.92,WNW,287,0.0,0.0,93,0.00,,,0.00,0,Wunderground v.1.15,2013-02-05 10:26:00,
2013-02-05 05:31:00,27.8,26.0,29.92,WNW,297,0.0,0.0,93,0.00,,,0.00,0,Wunderground v.1.15,2013-02-05 10:31:00,
2013-02-05 05:37:00,27.7,25.9,29.92,WNW,300,0.0,0.0,93,0.00,,,0.00,0,Wunderground v.1.15,2013-02-05 10:37:00,
2013-02-05 05:42:00,27.7,25.9,29.92,WNW,282,0.0,0.0,93,0.00,,,0.00,0,Wunderground v.1.15,2013-02-05 10:42:00,
2013-02-05 05:47:00,27.6,25.8,29.92,WNW,298,0.0,0.0,93,0.00,,,0.00,0,Wunderground v.1.15,2013-02-05 10:47:00,
2013-02-05 05:52:00,27.5,25.7,29.91,NW,316,0.0,0.0,93,0.00,,,0.00,0,Wunderground v.1.15,2013-02-05 10:52:00,
2013-02-05 05:57:00,27.4,25.6,29.91,WNW,300,0.0,0.0,93,0.00,,,0.00,0,Wunderground v.1.15,2013-02-05 10:57:00,
2013-02-05 06:02:00,27.3,25.5,29.92,WNW,286,0.0,0.0,93,0.00,,,0.00,0,Wunderground v.1.15,2013-02-05 11:02:00,
2013-02-05 06:07:00,27.2,25.4,29.91,WNW,298,0.0,0.0,93,0.00,,,0.00,0,Wunderground v.1.15,2013-02-05 11:07:00,
2013-02-05 06:12:00,27.2,25.4,29.91,NW,315,0.0,0.0,93,0.00,,,0.00,0,Wunderground v.1.15,2013-02-05 11:12:00,
2013-02-05 06:17:00,27.2,25.4,29.91,WNW,288,0.0,0.0,93,0.00,,,0.00,0,Wunderground v.1.15,2013-02-05 11:17:00,
2013-02-05 06:22:00,27.1,25.3,29.91,WNW,287,0.0,0.0,93,0.00,,,0.00,0,Wunderground v.1.15,2013-02-05 11:22:00,
2013-02-05 06:27:00,27.1,25.3,29.90,WNW,282,0.0,0.0,93,0.00,,,0.00,0,Wunderground v.1.15,2013-02-05 11:27:00,
2013-02-05 06:32:00,27.0,25.2,29.91,NW,315,0.0,0.0,93,0.00,,,0.00,0,Wunderground v.1.15,2013-02-05 11:32:00,
2013-02-05 06:37:00,27.0,25.2,29.91,NW,306,0.0,0.0,93,0.00,,,0.00,0,Wunderground v.1.15,2013-02-05 11:37:00,
2013-02-05 06:42:00,27.0,25.2,29.91,NNW,330,0.0,0.0,93,0.00,,,0.00,0,Wunderground v.1.15,2013-02-05 11:42:00,
2013-02-05 06:47:00,27.0,25.2,29.90,NNW,327,0.0,0.0,93,0.00,,,0.00,0,Wunderground v.1.15,2013-02-05 11:47:00,
2013-02-05 06:52:00,27.0,25.2,29.91,West,276,0.0,0.0,93,0.00,,,0.00,0,Wunderground v.1.15,2013-02-05 11:52:00,
2013-02-05 06:57:00,27.0,25.2,29.92,WNW,288,0.0,0.0,93,0.00,,,0.00,0,Wunderground v.1.15,2013-02-05 11:57:00,
2013-02-05 07:02:00,26.9,25.1,29.92,West,276,0.0,0.0,93,0.00,,,0.00,0,Wunderground v.1.15,2013-02-05 12:02:00,
2013-02-05 07:07:00,26.9,25.1,29.92,West,269,0.0,0.0,93,0.00,,,0.00,0,Wunderground v.1.15,2013-02-05 12:07:00,
2013-02-05 07:12:00,26.9,25.1,29.92,WNW,284,0.0,0.0,93,0.00,,,0.00,0,Wunderground v.1.15,2013-02-05 12:12:00,
2013-02-05 07:17:00,26.9,25.1,29.92,WNW,285,0.0,0.0,93,0.00,,,0.00,0,Wunderground v.1.15,2013-02-05 12:17:00,
2013-02-05 07:22:00,26.8,25.0,29.93,WNW,293,0.0,0.0,93,0.00,,,0.00,0,Wunderground v.1.15,2013-02-05 12:22:00,
2013-02-05 07:27:00,26.8,25.0,29.92,WNW,290,0.0,0.0,93,0.00,,,0.00,0,Wunderground v.1.15,2013-02-05 12:27:00,
2013-02-05 07:32:00,26.8,25.0,29.92,West,276,0.0,0.0,93,0.00,,,0.00,0,Wunderground v.1.15,2013-02-05 12:32:00,
2013-02-05 07:37:00,26.8,25.0,29.92,WNW,298,0.0,0.0,93,0.00,,,0.00,0,Wunderground v.1.15,2013-02-05 12:37:00,
2013-02-05 07:42:00,26.7,24.9,29.92,WNW,298,0.0,0.0,93,0.00,,,0.00,0,Wunderground v.1.15,2013-02-05 12:42:00,
2013-02-05 07:47:00,26.7,24.9,29.92,WNW,298,0.0,0.0,93,0.00,,,0.00,0,Wunderground v.1.15,2013-02-05 12:47:00,
2013-02-05 07:52:00,26.7,24.9,29.93,WNW,292,0.0,0.0,93,0.00,,,0.00,0,Wunderground v.1.15,2013-02-05 12:52:00,
2013-02-05 07:57:00,26.7,24.9,29.93,West,273,0.0,0.0,93,0.00,,,0.00,0,Wunderground v.1.15,2013-02-05 12:57:00,
2013-02-05 08:02:00,26.7,24.9,29.94,WSW,249,0.0,0.0,93,0.00,,,0.00,0,Wunderground v.1.15,2013-02-05 13:02:00,
2013-02-05 08:07:00,26.6,24.8,29.94,West,281,0.0,0.0,93,0.00,,,0.00,0,Wunderground v.1.15,2013-02-05 13:07:00,
2013-02-05 08:12:00,26.6,24.8,29.94,West,269,0.0,0.0,93,0.00,,,0.00,5,Wunderground v.1.15,2013-02-05 13:12:00,
2013-02-05 08:17:00,26.5,24.8,29.94,West,269,0.0,0.0,93,0.00,,,0.00,5,Wunderground v.1.15,2013-02-05 13:17:00,
2013-02-05 08:22:00,26.5,24.8,29.95,West,273,0.0,0.0,93,0.00,,,0.00,7,Wunderground v.1.15,2013-02-05 13:22:00,
2013-02-05 08:27:00,26.5,24.8,29.94,West,278,0.0,0.0,93,0.00,,,0.00,7,Wunderground v.1.15,2013-02-05 13:27:00,
2013-02-05 08:32:00,26.4,24.7,29.95,West,281,0.0,0.0,93,0.00,,,0.00,7,Wunderground v.1.15,2013-02-05 13:32:00,
2013-02-05 08:37:00,26.4,24.7,29.95,West,262,0.0,0.0,93,0.00,,,0.00,7,Wunderground v.1.15,2013-02-05 13:37:00,
2013-02-05 08:42:00,26.3,24.6,29.95,West,265,0.0,0.0,93,0.00,,,0.00,16,Wunderground v.1.15,2013-02-05 13:42:00,
2013-02-05 08:47:00,26.3,24.6,29.95,WNW,286,0.0,0.0,93,0.00,,,0.00,30,Wunderground v.1.15,2013-02-05 13:47:00,
2013-02-05 08:52:00,26.4,24.7,29.94,WSW,252,0.0,0.0,93,0.00,,,0.00,21,Wunderground v.1.15,2013-02-05 13:52:00,
2013-02-05 08:57:00,26.5,24.8,29.94,West,262,0.0,0.0,93,0.00,,,0.00,21,Wunderground v.1.15,2013-02-05 13:57:00,
2013-02-05 09:02:00,26.5,24.8,29.94,WNW,286,0.0,0.0,93,0.00,,,0.00,21,Wunderground v.1.15,2013-02-05 14:02:00,
2013-02-05 09:07:00,26.6,24.8,29.94,West,273,0.0,0.0,93,0.00,,,0.00,14,Wunderground v.1.15,2013-02-05 14:07:00,
2013-02-05 09:12:00,26.6,24.8,29.94,WNW,286,0.0,0.0,93,0.00,,,0.00,26,Wunderground v.1.15,2013-02-05 14:12:00,
2013-02-05 09:17:00,26.7,24.9,29.95,WSW,257,0.0,0.0,93,0.00,,,0.00,28,Wunderground v.1.15,2013-02-05 14:17:00,
2013-02-05 09:22:00,26.7,24.9,29.96,WSW,246,0.0,0.0,93,0.00,,,0.00,28,Wunderground v.1.15,2013-02-05 14:22:00,
2013-02-05 09:27:00,26.8,25.0,29.96,West,279,0.0,0.0,93,0.00,,,0.00,37,Wunderground v.1.15,2013-02-05 14:27:00,
2013-02-05 09:32:00,26.9,25.1,29.96,WNW,286,0.0,0.0,93,0.00,,,0.00,35,Wunderground v.1.15,2013-02-05 14:32:00,
2013-02-05 09:37:00,26.9,24.9,29.96,WSW,246,0.0,0.0,92,0.00,,,0.00,54,Wunderground v.1.15,2013-02-05 14:37:00,
2013-02-05 09:42:00,26.9,24.9,29.96,WNW,292,0.0,0.0,92,0.00,,,0.00,39,Wunderground v.1.15,2013-02-05 14:42:00,
2013-02-05 09:47:00,27.0,25.0,29.96,WSW,257,0.0,0.0,92,0.00,,,0.00,42,Wunderground v.1.15,2013-02-05 14:47:00,
2013-02-05 09:52:00,27.1,25.1,29.96,West,266,0.0,0.0,92,0.00,,,0.00,37,Wunderground v.1.15,2013-02-05 14:52:00,
2013-02-05 09:57:00,27.2,25.2,29.96,WNW,286,0.0,0.0,92,0.00,,,0.00,53,Wunderground v.1.15,2013-02-05 14:57:00,
2013-02-05 10:02:00,27.4,25.4,29.96,West,280,0.0,0.0,92,0.00,,,0.00,49,Wunderground v.1.15,2013-02-05 15:02:00,
2013-02-05 10:07:00,27.5,25.5,29.97,SW,232,0.0,0.0,92,0.00,,,0.00,60,Wunderground v.1.15,2013-02-05 15:07:00,
2013-02-05 10:12:00,27.7,25.7,29.96,West,259,0.0,0.0,92,0.00,,,0.00,67,Wunderground v.1.15,2013-02-05 15:12:00,
2013-02-05 10:17:00,27.8,25.8,29.96,West,266,0.0,0.0,92,0.00,,,0.00,76,Wunderground v.1.15,2013-02-05 15:17:00,
2013-02-05 10:22:00,27.9,25.9,29.96,West,267,0.0,0.0,92,0.00,,,0.00,79,Wunderground v.1.15,2013-02-05 15:22:00,
2013-02-05 10:27:00,28.1,26.1,29.97,WSW,243,0.0,0.0,92,0.00,,,0.00,81,Wunderground v.1.15,2013-02-05 15:27:00,
2013-02-05 10:32:00,28.1,25.8,29.97,West,271,0.0,0.0,91,0.00,,,0.00,86,Wunderground v.1.15,2013-02-05 15:32:00,
2013-02-05 10:37:00,28.1,25.8,29.97,West,267,0.0,0.0,91,0.00,,,0.00,83,Wunderground v.1.15,2013-02-05 15:37:00,
2013-02-05 10:42:00,28.3,26.0,29.98,WSW,257,0.0,0.0,91,0.00,,,0.00,88,Wunderground v.1.15,2013-02-05 15:42:00,
2013-02-05 10:47:00,28.3,26.0,29.98,WSW,244,0.0,0.0,91,0.00,,,0.00,83,Wunderground v.1.15,2013-02-05 15:47:00,
2013-02-05 10:52:00,28.4,25.8,29.98,WSW,250,0.0,0.0,90,0.00,,,0.00,70,Wunderground v.1.15,2013-02-05 15:52:00,
2013-02-05 10:57:00,28.5,25.9,29.98,WSW,253,0.0,0.0,90,0.00,,,0.00,79,Wunderground v.1.15,2013-02-05 15:57:00,
2013-02-05 11:02:00,28.7,26.1,29.97,WSW,247,0.0,0.0,90,0.00,,,0.00,111,Wunderground v.1.15,2013-02-05 16:02:00,
2013-02-05 11:07:00,28.9,26.1,29.97,WSW,240,0.0,0.0,89,0.00,,,0.00,111,Wunderground v.1.15,2013-02-05 16:07:00,
2013-02-05 11:12:00,28.8,25.7,29.97,West,259,0.0,0.0,88,0.00,,,0.00,105,Wunderground v.1.15,2013-02-05 16:12:00,
2013-02-05 11:17:00,28.8,25.4,29.97,SW,231,0.0,0.0,87,0.00,,,0.00,120,Wunderground v.1.15,2013-02-05 16:17:00,
2013-02-05 11:22:00,29.1,25.4,29.97,WSW,244,0.0,0.0,86,0.00,,,0.00,135,Wunderground v.1.15,2013-02-05 16:22:00,
2013-02-05 11:27:00,29.1,25.4,29.97,WSW,247,0.0,0.0,86,0.00,,,0.00,141,Wunderground v.1.15,2013-02-05 16:27:00,
2013-02-05 11:32:00,29.6,25.6,29.97,WNW,286,0.0,0.0,85,0.00,,,0.00,148,Wunderground v.1.15,2013-02-05 16:32:00,
2013-02-05 11:38:00,29.3,25.1,29.97,SW,236,0.0,0.0,84,0.00,,,0.00,149,Wunderground v.1.15,2013-02-05 16:38:00,
2013-02-05 11:43:00,29.5,25.3,29.97,WSW,254,0.0,0.0,84,0.00,,,0.00,165,Wunderground v.1.15,2013-02-05 16:43:00,
2013-02-05 11:48:00,29.7,25.2,29.97,WSW,255,0.0,0.0,83,0.00,,,0.00,174,Wunderground v.1.15,2013-02-05 16:48:00,
2013-02-05 11:53:00,29.6,25.1,29.97,West,274,0.0,0.0,83,0.00,,,0.00,221,Wunderground v.1.15,2013-02-05 16:53:00,
2013-02-05 11:58:00,30.1,25.6,29.97,SW,225,0.0,0.0,83,0.00,,,0.01,308,Wunderground v.1.15,2013-02-05 16:58:00,
2013-02-05 12:03:00,29.7,24.6,29.96,SW,231,0.0,0.0,81,0.00,,,0.01,299,Wunderground v.1.15,2013-02-05 17:03:00,
2013-02-05 12:08:00,29.7,24.9,29.96,WNW,303,0.0,0.0,82,0.05,,,0.02,301,Wunderground v.1.15,2013-02-05 17:08:00,
2013-02-05 12:13:00,30.0,25.2,29.96,WSW,242,0.0,0.0,82,0.05,,,0.02,304,Wunderground v.1.15,2013-02-05 17:13:00,
2013-02-05 12:18:00,29.6,24.5,29.95,West,271,0.0,0.0,81,0.05,,,0.03,306,Wunderground v.1.15,2013-02-05 17:18:00,
2013-02-05 12:23:00,30.1,25.0,29.96,SW,234,0.0,0.0,81,0.05,,,0.03,316,Wunderground v.1.15,2013-02-05 17:23:00,
2013-02-05 12:28:00,30.3,25.2,29.95,South,186,0.0,0.0,81,0.05,,,0.03,325,Wunderground v.1.15,2013-02-05 17:28:00,
2013-02-05 12:33:00,30.3,24.9,29.95,SW,232,0.0,0.0,80,0.04,,,0.04,322,Wunderground v.1.15,2013-02-05 17:33:00,
2013-02-05 12:38:00,30.2,24.5,29.95,SW,229,0.0,0.0,79,0.04,,,0.04,323,Wunderground v.1.15,2013-02-05 17:38:00,
2013-02-05 12:43:00,30.2,25.1,29.94,West,273,0.0,0.0,81,0.04,,,0.04,315,Wunderground v.1.15,2013-02-05 17:43:00,
2013-02-05 12:48:00,30.2,24.8,29.94,WSW,257,0.0,0.0,80,0.04,,,0.04,304,Wunderground v.1.15,2013-02-05 17:48:00,
2013-02-05 12:53:00,30.0,24.6,29.94,WSW,237,0.0,0.0,80,0.00,,,0.05,302,Wunderground v.1.15,2013-02-05 17:53:00,
2013-02-05 12:58:00,30.3,24.9,29.93,South,182,0.0,0.0,80,0.00,,,0.05,301,Wunderground v.1.15,2013-02-05 17:58:00,
2013-02-05 13:03:00,30.3,24.6,29.93,SW,225,0.0,0.0,79,0.00,,,0.05,299,Wunderground v.1.15,2013-02-05 18:03:00,
2013-02-05 13:08:00,30.6,24.9,29.93,SW,217,0.0,0.0,79,0.00,,,0.05,306,Wunderground v.1.15,2013-02-05 18:08:00,
2013-02-05 13:13:00,30.6,24.9,29.93,SW,215,0.0,0.0,79,0.00,,,0.06,306,Wunderground v.1.15,2013-02-05 18:13:00,
2013-02-05 13:18:00,30.7,25.0,29.93,SSW,194,0.0,0.0,79,0.00,,,0.06,315,Wunderground v.1.15,2013-02-05 18:18:00,
2013-02-05 13:23:00,30.5,24.5,29.93,South,175,0.0,0.0,78,0.00,,,0.06,330,Wunderground v.1.15,2013-02-05 18:23:00,
2013-02-05 13:28:00,30.7,25.0,29.92,SW,221,0.0,0.0,79,0.00,,,0.06,341,Wunderground v.1.15,2013-02-05 18:28:00,
2013-02-05 13:33:00,30.8,24.7,29.92,SSW,198,0.0,0.0,78,0.00,,,0.06,308,Wunderground v.1.15,2013-02-05 18:33:00,
2013-02-05 13:38:00,30.7,25.0,29.93,ENE,57,0.0,0.0,79,0.00,,,0.07,315,Wunderground v.1.15,2013-02-05 18:38:00,
2013-02-05 13:43:00,30.7,24.7,29.92,SSW,199,0.0,0.0,78,0.00,,,0.07,336,Wunderground v.1.15,2013-02-05 18:43:00,
2013-02-05 13:48:00,31.1,25.0,29.92,SSW,196,0.0,0.0,78,0.00,,,0.07,352,Wunderground v.1.15,2013-02-05 18:48:00,
2013-02-05 13:53:00,31.4,25.3,29.92,SW,230,0.0,0.0,78,0.00,,,0.07,323,Wunderground v.1.15,2013-02-05 18:53:00,
2013-02-05 13:58:00,31.6,25.5,29.92,ESE,115,0.0,0.0,78,0.00,,,0.07,306,Wunderground v.1.15,2013-02-05 18:58:00,
2013-02-05 14:03:00,31.4,25.0,29.92,SSW,196,0.0,0.0,77,0.00,,,0.08,330,Wunderground v.1.15,2013-02-05 19:03:00,
2013-02-05 14:08:00,31.7,25.3,29.92,SSW,204,0.0,0.0,77,0.00,,,0.08,299,Wunderground v.1.15,2013-02-05 19:08:00,
2013-02-05 14:13:00,31.6,25.2,29.92,SSW,198,0.0,0.0,77,0.00,,,0.08,281,Wunderground v.1.15,2013-02-05 19:13:00,
2013-02-05 14:18:00,31.5,24.8,29.92,South,179,0.0,0.0,76,0.00,,,0.08,265,Wunderground v.1.15,2013-02-05 19:18:00,
2013-02-05 14:23:00,31.5,24.8,29.92,SSW,200,0.0,0.0,76,0.00,,,0.08,241,Wunderground v.1.15,2013-02-05 19:23:00,
2013-02-05 14:28:00,31.3,24.6,29.92,SSE,157,0.0,0.0,76,0.00,,,0.08,209,Wunderground v.1.15,2013-02-05 19:28:00,
2013-02-05 14:33:00,31.1,24.4,29.92,SW,218,0.0,0.0,76,0.00,,,0.08,195,Wunderground v.1.15,2013-02-05 19:33:00,
2013-02-05 14:38:00,31.1,24.7,29.92,South,179,0.0,0.0,77,0.00,,,0.08,216,Wunderground v.1.15,2013-02-05 19:38:00,
2013-02-05 14:43:00,31.0,24.6,29.92,SE,144,0.0,0.0,77,0.00,,,0.08,223,Wunderground v.1.15,2013-02-05 19:43:00,
2013-02-05 14:48:00,31.0,24.6,29.92,South,185,0.0,0.0,77,0.00,,,0.09,183,Wunderground v.1.15,2013-02-05 19:48:00,
2013-02-05 14:54:00,30.8,24.1,29.92,SSW,197,0.0,0.0,76,0.00,,,0.09,148,Wunderground v.1.15,2013-02-05 19:54:00,
2013-02-05 14:58:00,30.5,23.8,29.93,South,171,0.0,0.0,76,0.00,,,0.09,153,Wunderground v.1.15,2013-02-05 19:58:00,
2013-02-05 15:04:00,30.6,24.2,29.93,SSE,161,0.0,0.0,77,0.00,,,0.09,144,Wunderground v.1.15,2013-02-05 20:04:00,
2013-02-05 15:09:00,30.6,24.2,29.93,SSE,154,0.0,0.0,77,0.00,,,0.09,151,Wunderground v.1.15,2013-02-05 20:09:00,
2013-02-05 15:14:00,30.9,24.5,29.93,SSE,167,0.0,0.0,77,0.00,,,0.09,155,Wunderground v.1.15,2013-02-05 20:14:00,
2013-02-05 15:19:00,31.0,24.6,29.93,South,178,0.0,0.0,77,0.00,,,0.09,139,Wunderground v.1.15,2013-02-05 20:19:00,
2013-02-05 15:24:00,31.0,24.6,29.92,SSE,155,0.0,0.0,77,0.00,,,0.09,139,Wunderground v.1.15,2013-02-05 20:24:00,
2013-02-05 15:29:00,31.2,25.1,29.92,SSE,162,0.0,0.0,78,0.00,,,0.09,158,Wunderground v.1.15,2013-02-05 20:29:00,
2013-02-05 15:34:00,31.2,25.1,29.92,SSE,167,0.0,0.0,78,0.00,,,0.09,144,Wunderground v.1.15,2013-02-05 20:34:00,
2013-02-05 15:38:00,31.4,25.3,29.92,SSE,158,0.0,0.0,78,0.00,,,0.09,120,Wunderground v.1.15,2013-02-05 20:38:00,
2013-02-05 15:44:00,31.5,25.4,29.92,SE,126,0.0,0.0,78,0.00,,,0.09,116,Wunderground v.1.15,2013-02-05 20:44:00,
2013-02-05 15:49:00,31.4,25.3,29.91,SE,142,0.0,0.0,78,0.00,,,0.09,118,Wunderground v.1.15,2013-02-05 20:49:00,
2013-02-05 15:53:00,31.3,24.9,29.91,SE,142,0.0,0.0,77,0.00,,,0.09,95,Wunderground v.1.15,2013-02-05 20:53:00,
2013-02-05 15:59:00,31.4,25.0,29.91,SE,142,0.0,0.0,77,0.00,,,0.09,100,Wunderground v.1.15,2013-02-05 20:59:00,
2013-02-05 16:04:00,31.5,25.1,29.91,SE,128,0.0,0.0,77,0.00,,,0.09,95,Wunderground v.1.15,2013-02-05 21:04:00,
2013-02-05 16:09:00,31.4,25.0,29.91,SE,129,0.0,0.0,77,0.00,,,0.09,93,Wunderground v.1.15,2013-02-05 21:09:00,
2013-02-05 16:14:00,31.4,25.0,29.91,SE,129,0.0,0.0,77,0.00,,,0.09,88,Wunderground v.1.15,2013-02-05 21:14:00,
2013-02-05 16:19:00,31.5,25.4,29.91,East,91,0.0,0.0,78,0.00,,,0.09,86,Wunderground v.1.15,2013-02-05 21:19:00,
2013-02-05 16:24:00,31.5,25.4,29.91,SE,146,0.0,0.0,78,0.00,,,0.09,83,Wunderground v.1.15,2013-02-05 21:24:00,
2013-02-05 16:29:00,31.6,25.5,29.90,SE,131,0.0,0.0,78,0.00,,,0.09,79,Wunderground v.1.15,2013-02-05 21:29:00,
2013-02-05 16:34:00,31.7,25.6,29.90,SE,132,0.0,0.0,78,0.00,,,0.09,76,Wunderground v.1.15,2013-02-05 21:34:00,
2013-02-05 16:39:00,31.7,25.6,29.90,ESE,123,0.0,0.0,78,0.00,,,0.09,74,Wunderground v.1.15,2013-02-05 21:39:00,
2013-02-05 16:44:00,31.7,25.6,29.90,SE,131,0.0,0.0,78,0.00,,,0.09,74,Wunderground v.1.15,2013-02-05 21:44:00,
2013-02-05 16:49:00,31.7,25.6,29.90,SE,132,0.0,0.0,78,0.00,,,0.09,70,Wunderground v.1.15,2013-02-05 21:49:00,
2013-02-05 16:54:00,31.7,25.9,29.90,SE,146,0.0,0.0,79,0.00,,,0.09,69,Wunderground v.1.15,2013-02-05 21:54:00,
2013-02-05 16:59:00,31.8,26.0,29.90,SE,128,0.0,0.0,79,0.00,,,0.09,60,Wunderground v.1.15,2013-02-05 21:59:00,
2013-02-05 17:04:00,31.8,26.0,29.90,East,92,0.0,0.0,79,0.00,,,0.09,51,Wunderground v.1.15,2013-02-05 22:04:00,
2013-02-05 17:09:00,31.7,25.9,29.90,East,92,0.0,0.0,79,0.00,,,0.09,42,Wunderground v.1.15,2013-02-05 22:09:00,
2013-02-05 17:14:00,31.7,25.9,29.90,SE,124,0.0,0.0,79,0.00,,,0.09,37,Wunderground v.1.15,2013-02-05 22:14:00,
2013-02-05 17:19:00,31.7,25.9,29.90,SE,124,0.0,0.0,79,0.00,,,0.09,28,Wunderground v.1.15,2013-02-05 22:19:00,
2013-02-05 17:24:00,31.7,26.2,29.90,SE,124,0.0,0.0,80,0.00,,,0.09,25,Wunderground v.1.15,2013-02-05 22:24:00,
2013-02-05 17:29:00,31.7,26.2,29.90,ENE,57,0.0,0.0,80,0.00,,,0.09,21,Wunderground v.1.15,2013-02-05 22:29:00,
2013-02-05 17:34:00,31.6,26.1,29.90,ESE,114,0.0,0.0,80,0.00,,,0.09,19,Wunderground v.1.15,2013-02-05 22:34:00,
2013-02-05 17:39:00,31.6,26.1,29.90,ESE,114,0.0,0.0,80,0.00,,,0.09,14,Wunderground v.1.15,2013-02-05 22:39:00,
2013-02-05 17:44:00,31.5,26.0,29.90,ESE,114,0.0,0.0,80,0.00,,,0.09,9,Wunderground v.1.15,2013-02-05 22:44:00,
2013-02-05 17:49:00,31.5,26.0,29.90,ESE,114,0.0,0.0,80,0.00,,,0.09,5,Wunderground v.1.15,2013-02-05 22:49:00,
2013-02-05 17:54:00,31.4,25.9,29.91,ESE,114,0.0,0.0,80,0.00,,,0.09,0,Wunderground v.1.15,2013-02-05 22:54:00,
2013-02-05 17:59:00,31.4,25.9,29.91,ESE,114,0.0,0.0,80,0.00,,,0.09,0,Wunderground v.1.15,2013-02-05 22:59:00,
2013-02-05 18:04:00,31.3,25.8,29.91,ESE,114,0.0,0.0,80,0.00,,,0.09,0,Wunderground v.1.15,2013-02-05 23:04:00,
2013-02-05 18:09:00,31.2,26.0,29.91,ESE,114,0.0,0.0,81,0.00,,,0.09,0,Wunderground v.1.15,2013-02-05 23:09:00,
2013-02-05 18:14:00,31.1,26.0,29.91,ESE,114,0.0,0.0,81,0.00,,,0.09,0,Wunderground v.1.15,2013-02-05 23:14:00,
2013-02-05 18:19:00,31.1,26.0,29.91,ESE,114,0.0,0.0,81,0.00,,,0.09,0,Wunderground v.1.15,2013-02-05 23:19:00,
2013-02-05 18:24:00,31.0,25.9,29.91,ESE,114,0.0,0.0,81,0.00,,,0.09,0,Wunderground v.1.15,2013-02-05 23:24:00,
2013-02-05 18:29:00,31.0,25.9,29.91,ESE,114,0.0,0.0,81,0.00,,,0.09,0,Wunderground v.1.15,2013-02-05 23:29:00,
2013-02-05 18:34:00,31.0,26.1,29.91,ESE,114,0.0,0.0,82,0.00,,,0.09,0,Wunderground v.1.15,2013-02-05 23:34:00,
2013-02-05 18:39:00,30.9,26.1,29.91,ESE,114,0.0,0.0,82,0.00,,,0.09,0,Wunderground v.1.15,2013-02-05 23:39:00,
2013-02-05 18:44:00,30.9,26.1,29.91,ESE,114,0.0,0.0,82,0.00,,,0.09,0,Wunderground v.1.15,2013-02-05 23:44:00,
2013-02-05 18:49:00,30.8,26.0,29.91,ESE,114,0.0,0.0,82,0.00,,,0.09,0,Wunderground v.1.15,2013-02-05 23:49:00,
2013-02-05 18:54:00,30.7,25.9,29.91,ESE,114,0.0,0.0,82,0.00,,,0.09,0,Wunderground v.1.15,2013-02-05 23:54:00,
2013-02-05 18:59:00,30.6,25.8,29.91,ESE,114,0.0,0.0,82,0.00,,,0.09,0,Wunderground v.1.15,2013-02-05 23:59:00,
2013-02-05 19:04:00,30.5,25.7,29.91,ESE,114,0.0,0.0,82,0.00,,,0.09,0,Wunderground v.1.15,2013-02-06 00:04:00,
2013-02-05 19:09:00,30.5,25.7,29.92,ESE,114,0.0,0.0,82,0.00,,,0.09,0,Wunderground v.1.15,2013-02-06 00:09:00,
2013-02-05 19:14:00,30.4,25.6,29.92,ESE,114,0.0,0.0,82,0.00,,,0.09,0,Wunderground v.1.15,2013-02-06 00:14:00,
2013-02-05 19:19:00,30.3,25.5,29.92,ESE,114,0.0,0.0,82,0.00,,,0.09,0,Wunderground v.1.15,2013-02-06 00:19:00,
2013-02-05 19:24:00,30.3,25.8,29.92,ESE,114,0.0,0.0,83,0.00,,,0.09,0,Wunderground v.1.15,2013-02-06 00:24:00,
2013-02-05 19:29:00,30.2,25.7,29.93,ESE,114,0.0,0.0,83,0.00,,,0.09,0,Wunderground v.1.15,2013-02-06 00:29:00,
2013-02-05 19:34:00,30.2,25.7,29.93,ESE,114,0.0,0.0,83,0.00,,,0.09,0,Wunderground v.1.15,2013-02-06 00:34:00,
2013-02-05 19:39:00,30.2,25.7,29.94,ESE,114,0.0,0.0,83,0.00,,,0.09,0,Wunderground v.1.15,2013-02-06 00:39:00,
2013-02-05 19:44:00,30.1,25.6,29.94,ESE,114,0.0,0.0,83,0.00,,,0.09,0,Wunderground v.1.15,2013-02-06 00:44:00,
2013-02-05 19:50:00,30.0,25.5,29.94,ESE,114,0.0,0.0,83,0.00,,,0.09,0,Wunderground v.1.15,2013-02-06 00:50:00,
2013-02-05 19:55:00,30.0,25.5,29.94,ESE,114,0.0,0.0,83,0.00,,,0.09,0,Wunderground v.1.15,2013-02-06 00:55:00,
2013-02-05 20:00:00,29.9,25.4,29.94,ESE,114,0.0,0.0,83,0.00,,,0.09,0,Wunderground v.1.15,2013-02-06 01:00:00,
2013-02-05 20:05:00,29.9,25.4,29.95,SW,230,0.0,0.0,83,0.00,,,0.09,0,Wunderground v.1.15,2013-02-06 01:05:00,
2013-02-05 20:10:00,30.2,25.9,29.95,NW,306,0.0,0.0,84,0.00,,,0.09,0,Wunderground v.1.15,2013-02-06 01:10:00,
2013-02-05 20:15:00,30.3,26.0,29.95,South,180,0.0,0.0,84,0.00,,,0.09,0,Wunderground v.1.15,2013-02-06 01:15:00,
2013-02-05 20:20:00,30.3,26.3,29.95,South,180,0.0,0.0,85,0.00,,,0.09,0,Wunderground v.1.15,2013-02-06 01:20:00,
2013-02-05 20:25:00,30.4,26.4,29.95,South,180,0.0,0.0,85,0.00,,,0.09,0,Wunderground v.1.15,2013-02-06 01:25:00,
2013-02-05 20:30:00,30.5,26.5,29.96,South,180,0.0,0.0,85,0.00,,,0.09,0,Wunderground v.1.15,2013-02-06 01:30:00,
2013-02-05 20:35:00,30.4,26.7,29.96,South,180,0.0,0.0,86,0.00,,,0.09,0,Wunderground v.1.15,2013-02-06 01:35:00,
2013-02-05 20:40:00,30.5,26.8,29.96,South,180,0.0,0.0,86,0.00,,,0.09,0,Wunderground v.1.15,2013-02-06 01:40:00,
2013-02-05 20:45:00,30.5,26.8,29.97,South,180,0.0,0.0,86,0.00,,,0.09,0,Wunderground v.1.15,2013-02-06 01:45:00,
2013-02-05 20:50:00,30.5,26.8,29.97,South,180,0.0,0.0,86,0.00,,,0.09,0,Wunderground v.1.15,2013-02-06 01:50:00,
2013-02-05 20:55:00,30.4,26.7,29.97,South,180,0.0,0.0,86,0.00,,,0.09,0,Wunderground v.1.15,2013-02-06 01:55:00,
2013-02-05 21:00:00,30.5,26.8,29.96,South,180,0.0,0.0,86,0.00,,,0.09,0,Wunderground v.1.15,2013-02-06 02:00:00,
2013-02-05 21:05:00,30.5,27.1,29.97,South,180,0.0,0.0,87,0.00,,,0.09,0,Wunderground v.1.15,2013-02-06 02:05:00,
2013-02-05 21:10:00,30.4,27.0,29.97,South,180,0.0,0.0,87,0.00,,,0.09,0,Wunderground v.1.15,2013-02-06 02:10:00,
2013-02-05 21:15:00,30.4,27.0,29.97,South,180,0.0,0.0,87,0.00,,,0.09,0,Wunderground v.1.15,2013-02-06 02:15:00,
2013-02-05 21:20:00,30.4,27.0,29.97,South,180,0.0,0.0,87,0.00,,,0.09,0,Wunderground v.1.15,2013-02-06 02:20:00,
2013-02-05 21:25:00,30.4,27.0,29.97,WSW,256,0.0,0.0,87,0.00,,,0.09,0,Wunderground v.1.15,2013-02-06 02:25:00,
2013-02-05 21:30:00,30.5,27.1,29.97,SW,229,0.0,0.0,87,0.00,,,0.09,0,Wunderground v.1.15,2013-02-06 02:30:00,
2013-02-05 21:35:00,30.6,27.2,29.97,SW,232,0.0,0.0,87,0.00,,,0.09,0,Wunderground v.1.15,2013-02-06 02:35:00,
2013-02-05 21:40:00,30.8,27.7,29.97,WSW,237,0.0,0.0,88,0.00,,,0.09,0,Wunderground v.1.15,2013-02-06 02:40:00,
2013-02-05 21:45:00,31.0,27.9,29.97,SW,227,0.0,0.0,88,0.00,,,0.09,0,Wunderground v.1.15,2013-02-06 02:45:00,
2013-02-05 21:50:00,31.1,28.0,29.98,WSW,239,0.0,0.0,88,0.00,,,0.09,0,Wunderground v.1.15,2013-02-06 02:50:00,
2013-02-05 21:55:00,31.2,28.1,29.98,WSW,241,0.0,0.0,88,0.00,,,0.09,0,Wunderground v.1.15,2013-02-06 02:55:00,
2013-02-05 22:00:00,31.4,28.3,29.98,SW,221,0.0,0.0,88,0.00,,,0.09,0,Wunderground v.1.15,2013-02-06 03:00:00,
2013-02-05 22:05:00,31.5,28.4,29.98,WSW,250,0.0,0.0,88,0.00,,,0.09,0,Wunderground v.1.15,2013-02-06 03:05:00,
2013-02-05 22:10:00,31.7,28.6,29.98,SW,227,0.0,0.0,88,0.00,,,0.09,0,Wunderground v.1.15,2013-02-06 03:10:00,
2013-02-05 22:15:00,31.9,28.8,29.98,West,267,0.0,0.0,88,0.00,,,0.09,0,Wunderground v.1.15,2013-02-06 03:15:00,
2013-02-05 22:21:00,32.1,28.9,29.99,SW,236,0.0,0.0,88,0.00,,,0.09,0,Wunderground v.1.15,2013-02-06 03:21:00,
2013-02-05 22:26:00,32.3,29.1,29.99,West,261,0.0,0.0,88,0.00,,,0.09,0,Wunderground v.1.15,2013-02-06 03:26:00,
2013-02-05 22:31:00,32.4,29.2,29.99,WSW,241,0.0,0.0,88,0.00,,,0.09,0,Wunderground v.1.15,2013-02-06 03:31:00,
2013-02-05 22:36:00,32.6,29.7,29.99,West,271,0.0,0.0,89,0.00,,,0.09,0,Wunderground v.1.15,2013-02-06 03:36:00,
2013-02-05 22:41:00,32.8,29.6,29.99,WSW,240,0.0,0.0,88,0.00,,,0.09,0,Wunderground v.1.15,2013-02-06 03:41:00,
2013-02-05 22:46:00,33.0,29.8,30.00,SW,235,0.0,0.0,88,0.00,,,0.09,0,Wunderground v.1.15,2013-02-06 03:46:00,
2013-02-05 22:51:00,33.1,29.9,30.00,WSW,239,0.0,0.0,88,0.00,,,0.09,0,Wunderground v.1.15,2013-02-06 03:51:00,
2013-02-05 22:56:00,33.1,29.9,30.00,WSW,252,0.0,0.0,88,0.00,,,0.09,0,Wunderground v.1.15,2013-02-06 03:56:00,
2013-02-05 23:01:00,33.2,30.0,30.00,WSW,252,0.0,0.0,88,0.00,,,0.09,0,Wunderground v.1.15,2013-02-06 04:01:00,
2013-02-05 23:06:00,33.3,30.1,30.01,WSW,257,0.0,0.0,88,0.00,,,0.09,0,Wunderground v.1.15,2013-02-06 04:06:00,
2013-02-05 23:11:00,33.4,30.2,30.00,WSW,238,0.0,0.0,88,0.00,,,0.09,0,Wunderground v.1.15,2013-02-06 04:11:00,
2013-02-05 23:16:00,33.4,30.2,30.00,WSW,242,0.0,0.0,88,0.00,,,0.09,0,Wunderground v.1.15,2013-02-06 04:16:00,
2013-02-05 23:21:00,33.4,30.2,30.01,SW,232,0.0,0.0,88,0.00,,,0.09,0,Wunderground v.1.15,2013-02-06 04:21:00,
2013-02-05 23:26:00,33.4,30.2,30.01,SW,225,0.0,0.0,88,0.00,,,0.09,0,Wunderground v.1.15,2013-02-06 04:26:00,
2013-02-05 23:31:00,33.4,30.2,30.01,SW,236,0.0,0.0,88,0.00,,,0.09,0,Wunderground v.1.15,2013-02-06 04:31:00,
2013-02-05 23:36:00,33.4,30.2,30.01,WSW,251,0.0,0.0,88,0.00,,,0.09,0,Wunderground v.1.15,2013-02-06 04:36:00,
2013-02-05 23:41:00,33.3,30.1,30.01,WSW,253,0.0,0.0,88,0.00,,,0.09,0,Wunderground v.1.15,2013-02-06 04:41:00,
2013-02-05 23:46:00,33.3,30.1,30.01,WSW,237,0.0,0.0,88,0.00,,,0.09,0,Wunderground v.1.15,2013-02-06 04:46:00,
2013-02-05 23:51:00,33.3,30.1,30.01,WSW,250,0.0,0.0,88,0.00,,,0.09,0,Wunderground v.1.15,2013-02-06 04:51:00,
2013-02-05 23:56:00,33.3,30.1,30.01,West,259,0.0,0.0,88,0.00,,,0.09,0,Wunderground v.1.15,2013-02-06 04:56:00,